sensor_id;sensor_type;location;lat;lon;timestamp;P1;durP1;ratioP1;P2;durP2;ratioP2
65459;SDS011;52058;49.822;6.754;2023-12-20T00:01:32;4.22;;;2.58;;
65459;SDS011;52058;49.822;6.754;2023-12-20T00:03:59;4.57;;;1.92;;
65459;SDS011;52058;49.822;6.754;2023-12-20T00:06:26;2.40;;;2.20;;
65459;SDS011;52058;49.822;6.754;2023-12-20T00:08:52;3.10;;;1.98;;
65459;SDS011;52058;49.822;6.754;2023-12-20T00:11:20;3.22;;;2.03;;
65459;SDS011;52058;49.822;6.754;2023-12-20T00:13:47;3.88;;;2.38;;
65459;SDS011;52058;49.822;6.754;2023-12-20T00:16:14;3.10;;;2.33;;
65459;SDS011;52058;49.822;6.754;2023-12-20T00:18:40;2.97;;;2.05;;
65459;SDS011;52058;49.822;6.754;2023-12-20T00:21:07;2.33;;;1.85;;
65459;SDS011;52058;49.822;6.754;2023-12-20T00:23:34;2.28;;;1.98;;
65459;SDS011;52058;49.822;6.754;2023-12-20T00:26:00;3.88;;;2.40;;
65459;SDS011;52058;49.822;6.754;2023-12-20T00:28:28;3.50;;;2.53;;
65459;SDS011;52058;49.822;6.754;2023-12-20T00:30:55;2.72;;;2.15;;
65459;SDS011;52058;49.822;6.754;2023-12-20T00:33:22;3.05;;;2.33;;
65459;SDS011;52058;49.822;6.754;2023-12-20T00:35:48;4.65;;;2.30;;
65459;SDS011;52058;49.822;6.754;2023-12-20T00:38:15;2.72;;;2.08;;
65459;SDS011;52058;49.822;6.754;2023-12-20T00:40:42;3.13;;;1.95;;
65459;SDS011;52058;49.822;6.754;2023-12-20T00:43:08;3.15;;;2.30;;
65459;SDS011;52058;49.822;6.754;2023-12-20T00:45:36;2.42;;;2.20;;
65459;SDS011;52058;49.822;6.754;2023-12-20T00:48:04;4.07;;;1.98;;
65459;SDS011;52058;49.822;6.754;2023-12-20T00:50:31;2.15;;;1.88;;
65459;SDS011;52058;49.822;6.754;2023-12-20T00:52:58;3.22;;;2.30;;
65459;SDS011;52058;49.822;6.754;2023-12-20T00:55:25;2.13;;;1.92;;
65459;SDS011;52058;49.822;6.754;2023-12-20T00:57:51;2.83;;;2.10;;
65459;SDS011;52058;49.822;6.754;2023-12-20T01:00:33;2.13;;;1.80;;
65459;SDS011;52058;49.822;6.754;2023-12-20T01:03:01;2.38;;;1.92;;
65459;SDS011;52058;49.822;6.754;2023-12-20T01:05:28;2.65;;;1.98;;
65459;SDS011;52058;49.822;6.754;2023-12-20T01:07:55;3.58;;;2.05;;
65459;SDS011;52058;49.822;6.754;2023-12-20T01:10:21;1.95;;;1.73;;
65459;SDS011;52058;49.822;6.754;2023-12-20T01:12:48;4.22;;;1.75;;
65459;SDS011;52058;49.822;6.754;2023-12-20T01:15:15;3.60;;;2.20;;
65459;SDS011;52058;49.822;6.754;2023-12-20T01:17:41;2.50;;;1.98;;
65459;SDS011;52058;49.822;6.754;2023-12-20T01:20:10;2.33;;;1.63;;
65459;SDS011;52058;49.822;6.754;2023-12-20T01:22:37;3.10;;;1.98;;
65459;SDS011;52058;49.822;6.754;2023-12-20T01:25:03;4.38;;;2.15;;
65459;SDS011;52058;49.822;6.754;2023-12-20T01:27:31;2.03;;;1.80;;
65459;SDS011;52058;49.822;6.754;2023-12-20T01:29:58;1.80;;;1.70;;
65459;SDS011;52058;49.822;6.754;2023-12-20T01:32:25;2.05;;;1.73;;
65459;SDS011;52058;49.822;6.754;2023-12-20T01:34:51;1.85;;;1.65;;
65459;SDS011;52058;49.822;6.754;2023-12-20T01:37:20;2.42;;;1.73;;
65459;SDS011;52058;49.822;6.754;2023-12-20T01:39:48;2.50;;;1.70;;
65459;SDS011;52058;49.822;6.754;2023-12-20T01:42:15;2.60;;;1.85;;
65459;SDS011;52058;49.822;6.754;2023-12-20T01:44:42;2.05;;;1.70;;
65459;SDS011;52058;49.822;6.754;2023-12-20T01:47:09;2.88;;;2.15;;
65459;SDS011;52058;49.822;6.754;2023-12-20T01:49:36;2.22;;;1.60;;
65459;SDS011;52058;49.822;6.754;2023-12-20T01:52:03;1.90;;;1.75;;
65459;SDS011;52058;49.822;6.754;2023-12-20T01:54:31;2.20;;;1.67;;
65459;SDS011;52058;49.822;6.754;2023-12-20T01:56:58;2.00;;;1.70;;
65459;SDS011;52058;49.822;6.754;2023-12-20T01:59:25;2.35;;;1.70;;
65459;SDS011;52058;49.822;6.754;2023-12-20T02:01:52;2.05;;;1.60;;
65459;SDS011;52058;49.822;6.754;2023-12-20T02:04:19;2.67;;;1.33;;
65459;SDS011;52058;49.822;6.754;2023-12-20T02:06:46;1.88;;;1.50;;
65459;SDS011;52058;49.822;6.754;2023-12-20T02:09:13;2.22;;;1.70;;
65459;SDS011;52058;49.822;6.754;2023-12-20T02:11:43;2.60;;;1.70;;
65459;SDS011;52058;49.822;6.754;2023-12-20T02:14:10;1.70;;;1.40;;
65459;SDS011;52058;49.822;6.754;2023-12-20T02:16:36;2.97;;;1.60;;
65459;SDS011;52058;49.822;6.754;2023-12-20T02:19:03;1.70;;;1.60;;
65459;SDS011;52058;49.822;6.754;2023-12-20T02:21:34;1.85;;;1.35;;
65459;SDS011;52058;49.822;6.754;2023-12-20T02:24:01;1.45;;;1.33;;
65459;SDS011;52058;49.822;6.754;2023-12-20T02:26:27;2.28;;;1.65;;
65459;SDS011;52058;49.822;6.754;2023-12-20T02:28:54;1.70;;;1.40;;
65459;SDS011;52058;49.822;6.754;2023-12-20T02:31:21;1.63;;;1.23;;
65459;SDS011;52058;49.822;6.754;2023-12-20T02:33:49;1.42;;;1.33;;
65459;SDS011;52058;49.822;6.754;2023-12-20T02:36:16;1.75;;;1.50;;
65459;SDS011;52058;49.822;6.754;2023-12-20T02:38:44;2.55;;;1.77;;
65459;SDS011;52058;49.822;6.754;2023-12-20T02:41:10;1.90;;;1.70;;
65459;SDS011;52058;49.822;6.754;2023-12-20T02:43:37;2.92;;;1.65;;
65459;SDS011;52058;49.822;6.754;2023-12-20T02:46:04;1.88;;;1.50;;
65459;SDS011;52058;49.822;6.754;2023-12-20T02:48:30;2.05;;;1.60;;
65459;SDS011;52058;49.822;6.754;2023-12-20T02:50:57;2.72;;;1.70;;
65459;SDS011;52058;49.822;6.754;2023-12-20T02:53:24;2.25;;;1.70;;
65459;SDS011;52058;49.822;6.754;2023-12-20T02:55:52;2.20;;;1.70;;
65459;SDS011;52058;49.822;6.754;2023-12-20T02:58:18;2.00;;;1.67;;
65459;SDS011;52058;49.822;6.754;2023-12-20T03:00:45;1.95;;;1.67;;
65459;SDS011;52058;49.822;6.754;2023-12-20T03:03:12;2.08;;;1.77;;
65459;SDS011;52058;49.822;6.754;2023-12-20T03:05:38;2.42;;;2.00;;
65459;SDS011;52058;49.822;6.754;2023-12-20T03:08:05;2.70;;;1.88;;
65459;SDS011;52058;49.822;6.754;2023-12-20T03:10:32;2.25;;;1.70;;
65459;SDS011;52058;49.822;6.754;2023-12-20T03:13:00;1.90;;;1.70;;
65459;SDS011;52058;49.822;6.754;2023-12-20T03:15:26;2.22;;;1.80;;
65459;SDS011;52058;49.822;6.754;2023-12-20T03:17:53;2.22;;;1.90;;
65459;SDS011;52058;49.822;6.754;2023-12-20T03:20:20;2.15;;;1.95;;
65459;SDS011;52058;49.822;6.754;2023-12-20T03:22:47;2.78;;;2.03;;
65459;SDS011;52058;49.822;6.754;2023-12-20T03:25:13;2.90;;;2.00;;
65459;SDS011;52058;49.822;6.754;2023-12-20T03:27:40;2.78;;;1.80;;
65459;SDS011;52058;49.822;6.754;2023-12-20T03:30:08;2.20;;;1.92;;
65459;SDS011;52058;49.822;6.754;2023-12-20T03:32:36;2.50;;;2.10;;
65459;SDS011;52058;49.822;6.754;2023-12-20T03:35:04;2.67;;;2.30;;
65459;SDS011;52058;49.822;6.754;2023-12-20T03:37:31;2.20;;;2.00;;
65459;SDS011;52058;49.822;6.754;2023-12-20T03:39:57;3.78;;;2.40;;
65459;SDS011;52058;49.822;6.754;2023-12-20T03:42:24;4.35;;;2.50;;
65459;SDS011;52058;49.822;6.754;2023-12-20T03:44:51;3.15;;;2.17;;
65459;SDS011;52058;49.822;6.754;2023-12-20T03:47:19;3.60;;;2.55;;
65459;SDS011;52058;49.822;6.754;2023-12-20T03:49:46;2.40;;;2.05;;
65459;SDS011;52058;49.822;6.754;2023-12-20T03:52:12;2.92;;;2.45;;
65459;SDS011;52058;49.822;6.754;2023-12-20T03:54:39;3.33;;;2.28;;
65459;SDS011;52058;49.822;6.754;2023-12-20T03:57:07;2.80;;;2.28;;
65459;SDS011;52058;49.822;6.754;2023-12-20T03:59:34;4.28;;;2.22;;
65459;SDS011;52058;49.822;6.754;2023-12-20T04:02:01;4.65;;;2.53;;
65459;SDS011;52058;49.822;6.754;2023-12-20T04:04:29;3.80;;;2.42;;
65459;SDS011;52058;49.822;6.754;2023-12-20T04:06:57;4.72;;;2.80;;
65459;SDS011;52058;49.822;6.754;2023-12-20T04:09:24;4.57;;;2.58;;
65459;SDS011;52058;49.822;6.754;2023-12-20T04:11:50;3.58;;;2.50;;
65459;SDS011;52058;49.822;6.754;2023-12-20T04:14:17;4.57;;;2.60;;
65459;SDS011;52058;49.822;6.754;2023-12-20T04:16:44;8.00;;;3.55;;
65459;SDS011;52058;49.822;6.754;2023-12-20T04:19:10;7.93;;;3.97;;
65459;SDS011;52058;49.822;6.754;2023-12-20T04:21:38;6.47;;;3.35;;
65459;SDS011;52058;49.822;6.754;2023-12-20T04:24:05;6.45;;;3.20;;
65459;SDS011;52058;49.822;6.754;2023-12-20T04:26:33;5.88;;;3.35;;
65459;SDS011;52058;49.822;6.754;2023-12-20T04:29:00;5.80;;;2.67;;
65459;SDS011;52058;49.822;6.754;2023-12-20T04:31:26;4.05;;;2.70;;
65459;SDS011;52058;49.822;6.754;2023-12-20T04:33:53;4.20;;;2.50;;
65459;SDS011;52058;49.822;6.754;2023-12-20T04:36:20;5.30;;;3.22;;
65459;SDS011;52058;49.822;6.754;2023-12-20T04:38:48;5.05;;;2.92;;
65459;SDS011;52058;49.822;6.754;2023-12-20T04:41:15;5.82;;;2.80;;
65459;SDS011;52058;49.822;6.754;2023-12-20T04:43:43;4.43;;;2.58;;
65459;SDS011;52058;49.822;6.754;2023-12-20T04:46:10;3.47;;;2.17;;
65459;SDS011;52058;49.822;6.754;2023-12-20T04:48:37;4.85;;;2.13;;
65459;SDS011;52058;49.822;6.754;2023-12-20T04:51:04;5.78;;;2.67;;
65459;SDS011;52058;49.822;6.754;2023-12-20T04:53:31;3.15;;;2.00;;
65459;SDS011;52058;49.822;6.754;2023-12-20T04:55:59;3.38;;;2.58;;
65459;SDS011;52058;49.822;6.754;2023-12-20T04:58:25;3.22;;;2.30;;
65459;SDS011;52058;49.822;6.754;2023-12-20T05:00:52;6.63;;;2.63;;
65459;SDS011;52058;49.822;6.754;2023-12-20T05:03:19;6.30;;;3.58;;
65459;SDS011;52058;49.822;6.754;2023-12-20T05:05:46;7.85;;;3.63;;
65459;SDS011;52058;49.822;6.754;2023-12-20T05:08:13;5.43;;;3.42;;
65459;SDS011;52058;49.822;6.754;2023-12-20T05:10:40;4.63;;;2.53;;
65459;SDS011;52058;49.822;6.754;2023-12-20T05:13:08;5.68;;;2.42;;
65459;SDS011;52058;49.822;6.754;2023-12-20T05:15:35;3.65;;;2.40;;
65459;SDS011;52058;49.822;6.754;2023-12-20T05:18:02;3.05;;;2.05;;
65459;SDS011;52058;49.822;6.754;2023-12-20T05:20:29;5.60;;;2.30;;
65459;SDS011;52058;49.822;6.754;2023-12-20T05:22:56;3.97;;;2.50;;
65459;SDS011;52058;49.822;6.754;2023-12-20T05:25:23;4.57;;;2.42;;
65459;SDS011;52058;49.822;6.754;2023-12-20T05:27:50;5.10;;;2.38;;
65459;SDS011;52058;49.822;6.754;2023-12-20T05:30:18;4.95;;;2.83;;
65459;SDS011;52058;49.822;6.754;2023-12-20T05:32:45;5.22;;;2.17;;
65459;SDS011;52058;49.822;6.754;2023-12-20T05:35:12;6.85;;;2.50;;
65459;SDS011;52058;49.822;6.754;2023-12-20T05:37:38;3.72;;;2.30;;
65459;SDS011;52058;49.822;6.754;2023-12-20T05:40:05;6.28;;;2.40;;
65459;SDS011;52058;49.822;6.754;2023-12-20T05:42:35;4.40;;;1.88;;
65459;SDS011;52058;49.822;6.754;2023-12-20T05:45:02;4.65;;;2.42;;
65459;SDS011;52058;49.822;6.754;2023-12-20T05:47:30;2.72;;;1.88;;
65459;SDS011;52058;49.822;6.754;2023-12-20T05:49:56;4.78;;;2.03;;
65459;SDS011;52058;49.822;6.754;2023-12-20T05:52:23;6.32;;;2.88;;
65459;SDS011;52058;49.822;6.754;2023-12-20T05:54:50;6.18;;;2.15;;
65459;SDS011;52058;49.822;6.754;2023-12-20T05:57:17;4.53;;;2.10;;
65459;SDS011;52058;49.822;6.754;2023-12-20T05:59:44;5.10;;;2.33;;
65459;SDS011;52058;49.822;6.754;2023-12-20T06:02:10;3.72;;;1.90;;
65459;SDS011;52058;49.822;6.754;2023-12-20T06:04:38;3.92;;;2.03;;
65459;SDS011;52058;49.822;6.754;2023-12-20T06:07:08;4.97;;;1.88;;
65459;SDS011;52058;49.822;6.754;2023-12-20T06:09:37;6.93;;;2.50;;
65459;SDS011;52058;49.822;6.754;2023-12-20T06:12:04;4.80;;;2.35;;
65459;SDS011;52058;49.822;6.754;2023-12-20T06:14:31;9.35;;;2.95;;
65459;SDS011;52058;49.822;6.754;2023-12-20T06:16:58;3.47;;;1.92;;
65459;SDS011;52058;49.822;6.754;2023-12-20T06:19:26;3.70;;;1.77;;
65459;SDS011;52058;49.822;6.754;2023-12-20T06:21:54;3.92;;;2.08;;
65459;SDS011;52058;49.822;6.754;2023-12-20T06:24:21;4.88;;;1.83;;
65459;SDS011;52058;49.822;6.754;2023-12-20T06:26:47;5.10;;;1.83;;
65459;SDS011;52058;49.822;6.754;2023-12-20T06:29:14;3.25;;;1.85;;
65459;SDS011;52058;49.822;6.754;2023-12-20T06:31:41;5.07;;;1.98;;
65459;SDS011;52058;49.822;6.754;2023-12-20T06:34:08;5.45;;;1.90;;
65459;SDS011;52058;49.822;6.754;2023-12-20T06:36:35;3.25;;;1.75;;
65459;SDS011;52058;49.822;6.754;2023-12-20T06:39:03;8.30;;;2.30;;
65459;SDS011;52058;49.822;6.754;2023-12-20T06:41:30;7.30;;;3.25;;
65459;SDS011;52058;49.822;6.754;2023-12-20T06:43:57;7.55;;;3.53;;
65459;SDS011;52058;49.822;6.754;2023-12-20T06:46:23;3.83;;;2.60;;
65459;SDS011;52058;49.822;6.754;2023-12-20T06:48:50;3.90;;;2.45;;
65459;SDS011;52058;49.822;6.754;2023-12-20T06:51:17;6.95;;;2.63;;
65459;SDS011;52058;49.822;6.754;2023-12-20T06:53:44;7.15;;;2.38;;
65459;SDS011;52058;49.822;6.754;2023-12-20T06:56:13;7.32;;;2.85;;
65459;SDS011;52058;49.822;6.754;2023-12-20T06:58:40;5.20;;;1.90;;
65459;SDS011;52058;49.822;6.754;2023-12-20T07:01:10;5.20;;;2.47;;
65459;SDS011;52058;49.822;6.754;2023-12-20T07:03:38;5.40;;;2.22;;
65459;SDS011;52058;49.822;6.754;2023-12-20T07:06:04;3.40;;;1.77;;
65459;SDS011;52058;49.822;6.754;2023-12-20T07:08:31;3.83;;;1.75;;
65459;SDS011;52058;49.822;6.754;2023-12-20T07:10:58;4.78;;;1.92;;
65459;SDS011;52058;49.822;6.754;2023-12-20T07:13:26;5.78;;;1.85;;
65459;SDS011;52058;49.822;6.754;2023-12-20T07:15:53;11.80;;;2.75;;
65459;SDS011;52058;49.822;6.754;2023-12-20T07:18:19;2.97;;;2.20;;
65459;SDS011;52058;49.822;6.754;2023-12-20T07:20:46;6.78;;;2.60;;
65459;SDS011;52058;49.822;6.754;2023-12-20T07:23:13;4.30;;;2.10;;
65459;SDS011;52058;49.822;6.754;2023-12-20T07:25:39;9.20;;;2.88;;
65459;SDS011;52058;49.822;6.754;2023-12-20T07:28:06;7.97;;;3.78;;
65459;SDS011;52058;49.822;6.754;2023-12-20T07:30:34;7.20;;;2.53;;
65459;SDS011;52058;49.822;6.754;2023-12-20T07:33:01;4.72;;;2.00;;
65459;SDS011;52058;49.822;6.754;2023-12-20T07:35:28;5.35;;;2.22;;
65459;SDS011;52058;49.822;6.754;2023-12-20T07:37:55;6.00;;;2.25;;
65459;SDS011;52058;49.822;6.754;2023-12-20T07:40:21;4.28;;;2.40;;
65459;SDS011;52058;49.822;6.754;2023-12-20T07:42:48;5.03;;;2.50;;
65459;SDS011;52058;49.822;6.754;2023-12-20T07:45:15;6.90;;;2.30;;
65459;SDS011;52058;49.822;6.754;2023-12-20T07:47:43;8.65;;;2.80;;
65459;SDS011;52058;49.822;6.754;2023-12-20T07:50:10;8.13;;;2.58;;
65459;SDS011;52058;49.822;6.754;2023-12-20T07:52:36;5.72;;;2.67;;
65459;SDS011;52058;49.822;6.754;2023-12-20T07:55:03;8.27;;;2.78;;
65459;SDS011;52058;49.822;6.754;2023-12-20T07:57:30;7.30;;;2.83;;
65459;SDS011;52058;49.822;6.754;2023-12-20T07:59:57;4.65;;;2.35;;
65459;SDS011;52058;49.822;6.754;2023-12-20T08:02:24;5.43;;;2.20;;
65459;SDS011;52058;49.822;6.754;2023-12-20T08:04:51;7.20;;;2.35;;
65459;SDS011;52058;49.822;6.754;2023-12-20T08:07:18;10.65;;;2.80;;
65459;SDS011;52058;49.822;6.754;2023-12-20T08:09:45;5.60;;;2.90;;
65459;SDS011;52058;49.822;6.754;2023-12-20T08:12:11;8.32;;;3.05;;
65459;SDS011;52058;49.822;6.754;2023-12-20T08:14:38;6.45;;;2.17;;
65459;SDS011;52058;49.822;6.754;2023-12-20T08:17:05;6.82;;;2.47;;
65459;SDS011;52058;49.822;6.754;2023-12-20T08:19:31;6.50;;;2.30;;
65459;SDS011;52058;49.822;6.754;2023-12-20T08:21:59;6.65;;;3.92;;
65459;SDS011;52058;49.822;6.754;2023-12-20T08:24:27;4.53;;;2.40;;
65459;SDS011;52058;49.822;6.754;2023-12-20T08:26:53;7.65;;;2.72;;
65459;SDS011;52058;49.822;6.754;2023-12-20T08:29:20;3.78;;;2.40;;
65459;SDS011;52058;49.822;6.754;2023-12-20T08:31:47;9.93;;;3.17;;
65459;SDS011;52058;49.822;6.754;2023-12-20T08:34:18;11.48;;;2.97;;
65459;SDS011;52058;49.822;6.754;2023-12-20T08:36:45;5.03;;;2.40;;
65459;SDS011;52058;49.822;6.754;2023-12-20T08:39:13;6.80;;;2.92;;
65459;SDS011;52058;49.822;6.754;2023-12-20T08:41:40;8.32;;;2.80;;
65459;SDS011;52058;49.822;6.754;2023-12-20T08:44:06;7.75;;;3.28;;
65459;SDS011;52058;49.822;6.754;2023-12-20T08:46:33;8.13;;;3.10;;
65459;SDS011;52058;49.822;6.754;2023-12-20T08:49:00;11.10;;;2.88;;
65459;SDS011;52058;49.822;6.754;2023-12-20T08:51:27;6.38;;;3.33;;
65459;SDS011;52058;49.822;6.754;2023-12-20T08:53:54;5.53;;;2.70;;
65459;SDS011;52058;49.822;6.754;2023-12-20T08:56:22;6.32;;;3.25;;
65459;SDS011;52058;49.822;6.754;2023-12-20T08:58:48;5.47;;;2.70;;
65459;SDS011;52058;49.822;6.754;2023-12-20T09:01:15;5.47;;;3.15;;
65459;SDS011;52058;49.822;6.754;2023-12-20T09:03:42;5.18;;;3.10;;
65459;SDS011;52058;49.822;6.754;2023-12-20T09:06:09;9.43;;;3.38;;
65459;SDS011;52058;49.822;6.754;2023-12-20T09:08:36;9.35;;;3.30;;
65459;SDS011;52058;49.822;6.754;2023-12-20T09:11:02;6.05;;;3.60;;
65459;SDS011;52058;49.822;6.754;2023-12-20T09:13:31;8.10;;;3.42;;
65459;SDS011;52058;49.822;6.754;2023-12-20T09:15:57;8.10;;;3.58;;
65459;SDS011;52058;49.822;6.754;2023-12-20T09:18:24;6.88;;;3.33;;
65459;SDS011;52058;49.822;6.754;2023-12-20T09:20:51;9.05;;;3.78;;
65459;SDS011;52058;49.822;6.754;2023-12-20T09:23:18;9.13;;;3.70;;
65459;SDS011;52058;49.822;6.754;2023-12-20T09:25:44;5.55;;;3.40;;
65459;SDS011;52058;49.822;6.754;2023-12-20T09:28:11;6.93;;;3.67;;
65459;SDS011;52058;49.822;6.754;2023-12-20T09:30:39;7.35;;;4.05;;
65459;SDS011;52058;49.822;6.754;2023-12-20T09:33:06;10.95;;;3.70;;
65459;SDS011;52058;49.822;6.754;2023-12-20T09:35:33;8.68;;;3.75;;
65459;SDS011;52058;49.822;6.754;2023-12-20T09:37:59;10.32;;;4.07;;
65459;SDS011;52058;49.822;6.754;2023-12-20T09:40:26;7.45;;;3.60;;
65459;SDS011;52058;49.822;6.754;2023-12-20T09:42:56;10.43;;;4.70;;
65459;SDS011;52058;49.822;6.754;2023-12-20T09:45:25;9.40;;;3.75;;
65459;SDS011;52058;49.822;6.754;2023-12-20T09:47:53;8.57;;;3.35;;
65459;SDS011;52058;49.822;6.754;2023-12-20T09:50:20;6.68;;;3.03;;
65459;SDS011;52058;49.822;6.754;2023-12-20T09:52:49;10.85;;;3.50;;
65459;SDS011;52058;49.822;6.754;2023-12-20T09:55:17;8.00;;;3.40;;
65459;SDS011;52058;49.822;6.754;2023-12-20T09:57:45;10.75;;;3.97;;
65459;SDS011;52058;49.822;6.754;2023-12-20T10:00:12;7.65;;;3.30;;
65459;SDS011;52058;49.822;6.754;2023-12-20T10:02:40;7.90;;;4.10;;
65459;SDS011;52058;49.822;6.754;2023-12-20T10:05:15;9.93;;;3.60;;
65459;SDS011;52058;49.822;6.754;2023-12-20T10:07:44;7.18;;;3.30;;
65459;SDS011;52058;49.822;6.754;2023-12-20T10:10:11;6.18;;;3.10;;
65459;SDS011;52058;49.822;6.754;2023-12-20T10:12:39;9.20;;;3.70;;
65459;SDS011;52058;49.822;6.754;2023-12-20T10:15:06;10.57;;;3.47;;
65459;SDS011;52058;49.822;6.754;2023-12-20T10:17:35;7.40;;;3.17;;
65459;SDS011;52058;49.822;6.754;2023-12-20T10:20:02;11.50;;;3.75;;
65459;SDS011;52058;49.822;6.754;2023-12-20T10:22:35;8.05;;;3.15;;
65459;SDS011;52058;49.822;6.754;2023-12-20T10:25:03;5.95;;;3.42;;
65459;SDS011;52058;49.822;6.754;2023-12-20T10:27:30;8.32;;;3.03;;
65459;SDS011;52058;49.822;6.754;2023-12-20T10:29:58;6.22;;;2.90;;
65459;SDS011;52058;49.822;6.754;2023-12-20T10:32:25;10.13;;;3.17;;
65459;SDS011;52058;49.822;6.754;2023-12-20T10:34:53;5.20;;;2.92;;
65459;SDS011;52058;49.822;6.754;2023-12-20T10:37:21;9.32;;;3.10;;
65459;SDS011;52058;49.822;6.754;2023-12-20T10:39:50;7.13;;;3.13;;
65459;SDS011;52058;49.822;6.754;2023-12-20T10:42:20;6.82;;;2.97;;
65459;SDS011;52058;49.822;6.754;2023-12-20T10:44:48;7.60;;;3.00;;
65459;SDS011;52058;49.822;6.754;2023-12-20T10:47:15;6.13;;;2.50;;
65459;SDS011;52058;49.822;6.754;2023-12-20T10:49:43;5.78;;;3.20;;
65459;SDS011;52058;49.822;6.754;2023-12-20T10:52:11;6.65;;;2.65;;
65459;SDS011;52058;49.822;6.754;2023-12-20T10:54:39;4.90;;;2.72;;
65459;SDS011;52058;49.822;6.754;2023-12-20T10:57:08;7.55;;;2.65;;
65459;SDS011;52058;49.822;6.754;2023-12-20T10:59:36;6.93;;;2.88;;
65459;SDS011;52058;49.822;6.754;2023-12-20T11:02:04;10.30;;;2.88;;
65459;SDS011;52058;49.822;6.754;2023-12-20T11:04:34;5.32;;;2.50;;
65459;SDS011;52058;49.822;6.754;2023-12-20T11:07:07;7.32;;;2.50;;
65459;SDS011;52058;49.822;6.754;2023-12-20T11:09:49;4.85;;;2.35;;
65459;SDS011;52058;49.822;6.754;2023-12-20T11:12:28;8.23;;;2.60;;
65459;SDS011;52058;49.822;6.754;2023-12-20T11:15:01;8.15;;;2.40;;
65459;SDS011;52058;49.822;6.754;2023-12-20T11:17:29;7.40;;;2.30;;
65459;SDS011;52058;49.822;6.754;2023-12-20T11:20:05;5.22;;;2.40;;
65459;SDS011;52058;49.822;6.754;2023-12-20T11:22:33;5.28;;;2.10;;
65459;SDS011;52058;49.822;6.754;2023-12-20T11:25:03;8.63;;;2.80;;
65459;SDS011;52058;49.822;6.754;2023-12-20T11:27:33;9.30;;;2.63;;
65459;SDS011;52058;49.822;6.754;2023-12-20T11:29:59;6.60;;;1.83;;
65459;SDS011;52058;49.822;6.754;2023-12-20T11:32:31;8.60;;;2.60;;
65459;SDS011;52058;49.822;6.754;2023-12-20T11:35:00;4.32;;;1.88;;
65459;SDS011;52058;49.822;6.754;2023-12-20T11:37:31;5.65;;;2.15;;
65459;SDS011;52058;49.822;6.754;2023-12-20T11:40:00;5.72;;;1.98;;
65459;SDS011;52058;49.822;6.754;2023-12-20T11:42:27;5.13;;;2.00;;
65459;SDS011;52058;49.822;6.754;2023-12-20T11:44:55;8.63;;;2.75;;
65459;SDS011;52058;49.822;6.754;2023-12-20T11:47:22;6.93;;;2.78;;
65459;SDS011;52058;49.822;6.754;2023-12-20T11:49:49;4.10;;;2.20;;
65459;SDS011;52058;49.822;6.754;2023-12-20T11:52:16;6.32;;;1.88;;
65459;SDS011;52058;49.822;6.754;2023-12-20T11:54:43;4.85;;;2.00;;
65459;SDS011;52058;49.822;6.754;2023-12-20T11:57:09;7.63;;;2.17;;
65459;SDS011;52058;49.822;6.754;2023-12-20T11:59:36;4.90;;;2.05;;
65459;SDS011;52058;49.822;6.754;2023-12-20T12:02:04;5.25;;;1.75;;
65459;SDS011;52058;49.822;6.754;2023-12-20T12:04:32;6.13;;;2.13;;
65459;SDS011;52058;49.822;6.754;2023-12-20T12:06:59;3.80;;;1.73;;
65459;SDS011;52058;49.822;6.754;2023-12-20T12:09:25;7.13;;;2.15;;
65459;SDS011;52058;49.822;6.754;2023-12-20T12:11:52;5.57;;;2.30;;
65459;SDS011;52058;49.822;6.754;2023-12-20T12:14:19;9.88;;;3.20;;
65459;SDS011;52058;49.822;6.754;2023-12-20T12:16:45;6.45;;;3.00;;
65459;SDS011;52058;49.822;6.754;2023-12-20T12:19:21;8.45;;;2.75;;
65459;SDS011;52058;49.822;6.754;2023-12-20T12:21:48;6.05;;;2.33;;
65459;SDS011;52058;49.822;6.754;2023-12-20T12:24:15;4.65;;;2.20;;
65459;SDS011;52058;49.822;6.754;2023-12-20T12:26:49;10.70;;;2.70;;
65459;SDS011;52058;49.822;6.754;2023-12-20T12:29:16;6.55;;;2.70;;
65459;SDS011;52058;49.822;6.754;2023-12-20T12:31:43;3.55;;;2.50;;
65459;SDS011;52058;49.822;6.754;2023-12-20T12:34:09;8.95;;;3.15;;
65459;SDS011;52058;49.822;6.754;2023-12-20T12:36:37;9.77;;;2.70;;
65459;SDS011;52058;49.822;6.754;2023-12-20T12:39:05;9.68;;;2.72;;
65459;SDS011;52058;49.822;6.754;2023-12-20T12:41:32;6.75;;;2.92;;
65459;SDS011;52058;49.822;6.754;2023-12-20T12:43:59;8.25;;;3.10;;
65459;SDS011;52058;49.822;6.754;2023-12-20T12:46:26;8.52;;;2.50;;
65459;SDS011;52058;49.822;6.754;2023-12-20T12:48:52;10.40;;;2.40;;
65459;SDS011;52058;49.822;6.754;2023-12-20T12:51:19;4.93;;;2.85;;
65459;SDS011;52058;49.822;6.754;2023-12-20T12:53:47;10.05;;;3.00;;
65459;SDS011;52058;49.822;6.754;2023-12-20T12:56:15;9.98;;;3.20;;
65459;SDS011;52058;49.822;6.754;2023-12-20T12:58:42;7.00;;;2.25;;
65459;SDS011;52058;49.822;6.754;2023-12-20T13:01:09;6.10;;;2.83;;
65459;SDS011;52058;49.822;6.754;2023-12-20T13:03:35;6.15;;;2.20;;
65459;SDS011;52058;49.822;6.754;2023-12-20T13:06:02;6.03;;;2.08;;
65459;SDS011;52058;49.822;6.754;2023-12-20T13:08:31;6.65;;;2.85;;
65459;SDS011;52058;49.822;6.754;2023-12-20T13:11:15;8.88;;;2.97;;
65459;SDS011;52058;49.822;6.754;2023-12-20T13:13:41;10.55;;;4.38;;
65459;SDS011;52058;49.822;6.754;2023-12-20T13:16:08;7.25;;;2.67;;
65459;SDS011;52058;49.822;6.754;2023-12-20T13:18:35;12.10;;;3.97;;
65459;SDS011;52058;49.822;6.754;2023-12-20T13:21:01;12.20;;;4.70;;
65459;SDS011;52058;49.822;6.754;2023-12-20T13:23:28;11.80;;;3.75;;
65459;SDS011;52058;49.822;6.754;2023-12-20T13:25:55;8.80;;;3.90;;
65459;SDS011;52058;49.822;6.754;2023-12-20T13:28:23;13.27;;;4.57;;
65459;SDS011;52058;49.822;6.754;2023-12-20T13:30:49;5.85;;;2.72;;
65459;SDS011;52058;49.822;6.754;2023-12-20T13:33:16;9.57;;;4.38;;
65459;SDS011;52058;49.822;6.754;2023-12-20T13:35:43;5.35;;;2.30;;
65459;SDS011;52058;49.822;6.754;2023-12-20T13:38:09;8.38;;;2.60;;
65459;SDS011;52058;49.822;6.754;2023-12-20T13:40:36;13.05;;;5.18;;
65459;SDS011;52058;49.822;6.754;2023-12-20T13:43:03;8.13;;;3.25;;
65459;SDS011;52058;49.822;6.754;2023-12-20T13:45:32;8.40;;;2.85;;
65459;SDS011;52058;49.822;6.754;2023-12-20T13:47:59;7.45;;;3.03;;
65459;SDS011;52058;49.822;6.754;2023-12-20T13:50:25;4.72;;;2.20;;
65459;SDS011;52058;49.822;6.754;2023-12-20T13:52:52;11.90;;;5.55;;
65459;SDS011;52058;49.822;6.754;2023-12-20T13:55:19;8.10;;;2.30;;
65459;SDS011;52058;49.822;6.754;2023-12-20T13:57:47;5.38;;;2.20;;
65459;SDS011;52058;49.822;6.754;2023-12-20T14:00:14;6.18;;;2.65;;
65459;SDS011;52058;49.822;6.754;2023-12-20T14:02:42;9.50;;;2.72;;
65459;SDS011;52058;49.822;6.754;2023-12-20T14:05:11;6.60;;;2.60;;
65459;SDS011;52058;49.822;6.754;2023-12-20T14:07:42;7.63;;;3.40;;
65459;SDS011;52058;49.822;6.754;2023-12-20T14:10:09;6.70;;;3.15;;
65459;SDS011;52058;49.822;6.754;2023-12-20T14:12:37;5.68;;;2.63;;
65459;SDS011;52058;49.822;6.754;2023-12-20T14:15:04;8.98;;;3.13;;
65459;SDS011;52058;49.822;6.754;2023-12-20T14:17:34;5.65;;;2.42;;
65459;SDS011;52058;49.822;6.754;2023-12-20T14:20:02;8.65;;;2.58;;
65459;SDS011;52058;49.822;6.754;2023-12-20T14:22:30;8.57;;;2.38;;
65459;SDS011;52058;49.822;6.754;2023-12-20T14:24:56;6.10;;;3.10;;
65459;SDS011;52058;49.822;6.754;2023-12-20T14:27:23;8.55;;;3.35;;
65459;SDS011;52058;49.822;6.754;2023-12-20T14:29:52;4.72;;;2.58;;
65459;SDS011;52058;49.822;6.754;2023-12-20T14:32:19;6.70;;;2.33;;
65459;SDS011;52058;49.822;6.754;2023-12-20T14:34:46;11.70;;;4.18;;
65459;SDS011;52058;49.822;6.754;2023-12-20T14:37:14;10.98;;;5.13;;
65459;SDS011;52058;49.822;6.754;2023-12-20T14:39:42;5.72;;;2.63;;
65459;SDS011;52058;49.822;6.754;2023-12-20T14:42:08;7.63;;;2.47;;
65459;SDS011;52058;49.822;6.754;2023-12-20T14:44:38;8.10;;;3.08;;
65459;SDS011;52058;49.822;6.754;2023-12-20T14:47:05;6.35;;;2.80;;
65459;SDS011;52058;49.822;6.754;2023-12-20T14:49:32;7.63;;;3.03;;